Carcross, Canada
Current Conditions -  °F | °C
As of 10:00 AM on Saturday 25 Oct 2014 (Local Time) from CYXY Reporting Station
Moderate Fog Moderate Fog  
Wind Chill: 19°   Ceiling: Unl
Heat Index: 19°   Visibility: 30mi
Dew Point: 18°   Wind: 2mph
Humidity: 93%   Direction: 240°WSW
Pressure: 29.81"   Gusts: NA
Location:  60.18°N, 134.72°W
Report Text: CYXY 251700Z 24002KT 30SM VCFG FEW006 FEW080 M07/M08 A2981 RMK ST1AC1 FG OVR RIVER SLP136
Loading
Personal Weather Stations






























Interactive Weather Map
Tropical Storm Tracking
New forecast layout! Learn more

10-Day Weather Forecast

Advertisements
Track Severe Weather on mobile